Riverton, WY

5:38 AM MDT on May 24, 2017 (GMT -0600)
Logan Park | | Change Station
Active Advisory: Special Statement

Elev 4984 ft 43.04 °N, 108.39 °W | Updated 29 seconds ago

Clear
Clear
39.0 °F
Feels Like 39 °F
N
0.0
Wind Variable Wind from SSW
Gusts 1.0 mph

Today
High -- | Low -- °F
--% Chance of Precip.
Yesterday
High -- | Low -- °F
Precip. -- in
Pressure 29.70 in
Visibility 10.0 miles
Clouds Clear
Windchill 39 °F
Dew Point 36 °F
Humidity 88%
Rainfall 0.00 in
Snow Depth Not available.
5:41 AM 8:39 PM
Waning Crescent, 3% visible
METAR KRIW 241053Z AUTO 24007KT 10SM CLR 07/02 A2982 RMK AO2 SLP058 T00670017
Pressure 29.70 in
Visibility 10.0 miles
Clouds Clear
Windchill 39 °F
Dew Point 36 °F
Humidity 88%
Rainfall 0.00 in
Snow Depth Not available.
5:41 AM 8:39 PM
Waning Crescent, 3% visible
METAR KRIW 241053Z AUTO 24007KT 10SM CLR 07/02 A2982 RMK AO2 SLP058 T00670017

Get Your Daily Forecast Email!

Thanks for signing up!

Be on the lookout for a verification email in your inbox.

You'll start receiving severe weather alerts in your inbox..

×

10-Day Weather Forecast

Almanac

Astronomy

May. 24, 2017 Rise Set
Actual Time
Civil Twilight
Nautical Twilight
Astronomical Twilight
Moon
Length of Visible Light
Length of Day
Tomorrow will be .
, % of the Moon is Illuminated

Today's Extremes

State Highs State Lows

Community

WunderPhotos

Category 6

Welcome to Category 6. This is the collective home for Weather Underground's featured writeups by Dr. Jeff Masters (right), Bob Henson (left), Chris Burt, and other regular contributors.

Nearby

Air Quality

  Air Quality AQ Index Pollutant
Not available.

Snow Depth

Station Depth Elevation

Earthquake Activity

City Distance Mag. Time & Date
Minimum magnitude displayed is 2.5.

Coastal Water Temperatures

Place Temperature

Stations

Nearby Weather Stations

Station Location Temp. Windchill Dew Point Humidity Wind Precip. Elev Updated Type
                   

Watches & Warnings

Special Statement
Issued: 1:10 AM MDT May. 24, 2017 – National Weather Service

West winds increase this afternoon to 20 to 30 mph with gusts to
35 to 45 mph at times before decreasing around sunset. Travelers,
especially thoise towing trailers and in high profile vehicles,
are urged to watch for strong Crosswinds when traveling this
afternoon.



110 am MDT Wed may 24 2017

West winds increase this afternoon to 20 to 30 mph with gusts to
35 to 45 mph at times before decreasing around sunset. Travelers,
especially thoise towing trailers and in high profile vehicles,
are urged to watch for strong Crosswinds when traveling this
afternoon.